Atb Freeport — WDD6704 — position and weather

sailwx.info

Track history (hours):
 
Tides and Currents Weather Stations Pressure Air Temp Water Temp Dewpoint Dewpoint Depression Visibility Wind Speed Wind Dir Waves Ship Positions

Atb Freeport

Owner: US Shipping Corp, Edison, NJ. More information available from US FCC via Universal Licensing System and Coast Guard Vessel Documentation Center.

Last reported at 2018-Feb-21 03:00 UTC. Time now 2018-Feb-24 00:52 UTC.
Position N 26°27' W 079°52'.

Length 184 m; draft 6.7 m.

Type: Ship (hazmat cat A). MMSI: 367690000.

Date/timePositionNaut miles runAvg speedWind from/ knotsBaromVisibWave heightAir tempDewpointWater temp
2018-Feb-21 03:00N 26°27' W 079°52'714.0
2018-Feb-21 02:30N 26°21' W 079°54'713.2
2018-Feb-21 02:00N 26°15' W 079°58'612.1
2018-Feb-21 01:30N 26°10' W 080°02'5 9.0
2018-Feb-21 01:00N 26°06' W 080°03'1 2.8
2018-Feb-21 00:31N 26°04' W 080°03'611.4
2018-Feb-21 00:01N 25°59' W 080°02'612.4
2018-Feb-20 23:31N 25°53' W 080°01'612.9
2018-Feb-20 23:01N 25°46' W 079°60'713.9
2018-Feb-20 22:30N 25°39' W 079°59'715.0
2018-Feb-20 22:00N 25°32' W 079°58'815.0
2018-Feb-20 21:30N 25°24' W 079°59'  
Track history (hours):
 
Tides and Currents Weather Stations Pressure Air Temp Water Temp Dewpoint Dewpoint Depression Visibility Wind Speed Wind Dir Waves Ship Positions

Atb Freeport

Owner: US Shipping Corp, Edison, NJ. More information available from US FCC via Universal Licensing System and Coast Guard Vessel Documentation Center.

Last reported at 2018-Feb-21 03:00 UTC. Time now 2018-Feb-24 00:52 UTC.
Position N 26°27' W 079°52'.

Length 184 m; draft 6.7 m.

Type: Ship (hazmat cat A). MMSI: 367690000.

Date/timePositionNaut miles runAvg speedWind from/ knotsBaromVisibWave heightAir tempDewpointWater temp
2018-Feb-21 03:00N 26°27' W 079°52'714.0
2018-Feb-21 02:30N 26°21' W 079°54'713.2
2018-Feb-21 02:00N 26°15' W 079°58'612.1
2018-Feb-21 01:30N 26°10' W 080°02'5 9.0
2018-Feb-21 01:00N 26°06' W 080°03'1 2.8
2018-Feb-21 00:31N 26°04' W 080°03'611.4
2018-Feb-21 00:01N 25°59' W 080°02'612.4
2018-Feb-20 23:31N 25°53' W 080°01'612.9
2018-Feb-20 23:01N 25°46' W 079°60'713.9
2018-Feb-20 22:30N 25°39' W 079°59'715.0
2018-Feb-20 22:00N 25°32' W 079°58'815.0
2018-Feb-20 21:30N 25°24' W 079°59'  

Dump ship's entire track history